Time;durP1;ratioP1;P1;durP2;ratioP2;P2;SDS_P1;SDS_P2;PMS_P1;PMS_P2;Temp;Humidity;BMP_temperature;BMP_pressure;BME280_temperature;BME280_humidity;BME280_pressure;Samples;Min_cycle;Max_cycle;Signal;HPM_P1;HPM_P2
2023/04/17 00:00:24;;;;;;;12.63;8.43;;;;;;;5.87;100.00;96136.03;1033960;28;20261;-73
2023/04/17 00:00:54;;;;;;;15.98;8.98;;;;;;;5.89;100.00;96133.19;1038202;28;20028;-73
2023/04/17 00:01:24;;;;;;;12.38;8.60;;;;;;;5.84;100.00;96127.88;1038572;28;20025;-73
2023/04/17 00:01:55;;;;;;;14.05;8.07;;;;;;;5.85;100.00;96127.63;1037974;28;20022;-73
2023/04/17 00:02:28;;;;;;;15.48;8.38;;;;;;;5.86;100.00;96137.03;1038179;28;20021;-73
2023/04/17 00:03:00;;;;;;;12.50;8.18;;;;;;;5.86;100.00;96129.22;1033617;28;20022;-72
2023/04/17 00:03:30;;;;;;;20.80;9.30;;;;;;;5.87;100.00;96136.03;1027090;28;20270;-73
2023/04/17 00:04:01;;;;;;;13.23;8.65;;;;;;;5.83;100.00;96118.44;1037804;28;20792;-72
2023/04/17 00:04:31;;;;;;;12.50;8.32;;;;;;;5.88;100.00;96137.59;1033615;28;20072;-74
2023/04/17 00:05:02;;;;;;;12.13;8.55;;;;;;;5.85;100.00;96130.22;1038265;28;20107;-73
2023/04/17 00:05:32;;;;;;;13.80;8.15;;;;;;;5.87;100.00;96138.63;1036250;28;20034;-73
2023/04/17 00:06:03;;;;;;;16.27;8.05;;;;;;;5.89;100.00;96136.56;1038224;28;20030;-73
2023/04/17 00:06:34;;;;;;;13.45;8.55;;;;;;;5.87;100.00;96130.81;1038056;28;20075;-74
2023/04/17 00:07:04;;;;;;;13.68;8.55;;;;;;;5.87;100.00;96133.41;1039152;28;20041;-73
2023/04/17 00:07:38;;;;;;;13.13;8.43;;;;;;;5.87;100.00;96130.03;1038166;28;20038;-73
2023/04/17 00:08:09;;;;;;;13.90;8.32;;;;;;;5.90;100.00;96132.97;1037715;28;20093;-73
2023/04/17 00:08:39;;;;;;;10.98;7.65;;;;;;;5.91;100.00;96136.38;1033908;28;20269;-73
2023/04/17 00:09:10;;;;;;;12.63;8.20;;;;;;;5.90;100.00;96130.38;1033995;28;20124;-74
2023/04/17 00:09:41;;;;;;;12.55;8.27;;;;;;;5.91;100.00;96142.38;1030040;28;20026;-73
2023/04/17 00:10:11;;;;;;;13.18;8.07;;;;;;;5.89;100.00;96135.78;1022117;29;20470;-74
2023/04/17 00:10:42;;;;;;;13.55;8.60;;;;;;;5.92;100.00;96132.75;1028744;28;20041;-73
2023/04/17 00:11:12;;;;;;;9.43;7.13;;;;;;;5.89;100.00;96139.19;1030000;28;20046;-73
2023/04/17 00:11:43;;;;;;;11.93;7.63;;;;;;;5.90;100.00;96139.97;1026080;28;20034;-73
2023/04/17 00:12:13;;;;;;;11.52;8.10;;;;;;;5.86;100.00;96134.41;1030024;28;20061;-73
2023/04/17 00:12:44;;;;;;;10.75;7.43;;;;;;;5.90;100.00;96140.78;1038130;28;20095;-74
2023/04/17 00:13:14;;;;;;;11.68;7.53;;;;;;;5.89;100.00;96141.78;1038456;28;20033;-74
2023/04/17 00:13:45;;;;;;;12.95;8.13;;;;;;;5.91;100.00;96136.38;1042257;28;20682;-73
2023/04/17 00:14:15;;;;;;;11.35;7.75;;;;;;;5.93;100.00;96136.16;1037989;28;20029;-73
2023/04/17 00:14:46;;;;;;;16.77;8.18;;;;;;;5.93;100.00;96138.78;1037456;28;20030;-73
2023/04/17 00:15:16;;;;;;;14.52;8.02;;;;;;;5.94;100.00;96137.78;1033890;28;20030;-73
2023/04/17 00:15:46;;;;;;;13.70;8.30;;;;;;;5.93;100.00;96138.78;1038020;28;20034;-74
2023/04/17 00:16:17;;;;;;;15.20;8.20;;;;;;;5.97;100.00;96134.69;1034057;28;20478;-73
2023/04/17 00:16:47;;;;;;;13.32;8.23;;;;;;;5.96;100.00;96138.31;1033985;28;20042;-73
2023/04/17 00:17:18;;;;;;;15.07;9.00;;;;;;;5.93;100.00;96139.56;1038018;28;20045;-75
2023/04/17 00:17:48;;;;;;;13.93;9.05;;;;;;;5.94;100.00;96135.16;1038254;28;20040;-73
2023/04/17 00:18:19;;;;;;;12.18;7.80;;;;;;;5.94;100.00;96135.16;1042208;28;20028;-73
2023/04/17 00:18:49;;;;;;;13.85;9.07;;;;;;;5.97;100.00;96135.53;1042339;28;20047;-74
2023/04/17 00:19:19;;;;;;;12.48;8.20;;;;;;;5.98;100.00;96129.28;1041623;28;20033;-74
2023/04/17 00:19:50;;;;;;;13.82;8.65;;;;;;;6.01;100.00;96136.66;1042474;28;20029;-73
2023/04/17 00:20:20;;;;;;;15.77;8.75;;;;;;;6.00;100.00;96134.25;1047115;28;20066;-73
2023/04/17 00:20:52;;;;;;;12.50;8.27;;;;;;;5.95;100.00;96126.34;1044582;28;20043;-74
2023/04/17 00:21:22;;;;;;;12.80;8.35;;;;;;;5.97;100.00;96135.53;1045100;28;20047;-73
2023/04/17 00:21:53;;;;;;;11.20;7.93;;;;;;;5.97;100.00;96134.69;1038609;28;20271;-74
2023/04/17 00:22:23;;;;;;;12.65;8.20;;;;;;;5.82;100.00;96117.66;1034851;28;20034;-73
2023/04/17 00:22:54;;;;;;;16.05;9.13;;;;;;;5.97;100.00;96134.69;1035412;28;20037;-73
2023/04/17 00:23:24;;;;;;;12.48;8.55;;;;;;;5.99;100.00;96130.88;1038890;28;20099;-74
2023/04/17 00:23:55;;;;;;;14.75;9.05;;;;;;;5.93;100.00;96126.53;1039148;28;20029;-73
2023/04/17 00:24:26;;;;;;;12.40;8.23;;;;;;;5.96;100.00;96126.09;1038997;28;20029;-73
2023/04/17 00:24:56;;;;;;;13.02;8.95;;;;;;;5.89;100.00;96123.56;1038262;28;20029;-73
2023/04/17 00:25:26;;;;;;;13.93;8.45;;;;;;;5.95;100.00;96129.72;1030760;28;20035;-73
2023/04/17 00:25:57;;;;;;;16.15;8.68;;;;;;;5.94;100.00;96130.75;1034960;28;20025;-72
2023/04/17 00:26:27;;;;;;;14.60;8.70;;;;;;;5.94;100.00;96130.75;1033105;28;20076;-73
2023/04/17 00:26:58;;;;;;;16.65;9.40;;;;;;;5.96;100.00;96136.50;1035216;28;20025;-73
2023/04/17 00:27:28;;;;;;;17.67;9.32;;;;;;;5.86;100.00;96118.78;1042898;28;20039;-74
2023/04/17 00:27:59;;;;;;;14.23;9.13;;;;;;;5.96;100.00;96133.13;1041967;28;20029;-73
2023/04/17 00:28:29;;;;;;;13.65;9.20;;;;;;;5.91;100.00;96126.75;1039002;28;20092;-73
2023/04/17 00:29:00;;;;;;;12.90;8.40;;;;;;;5.95;100.00;96131.53;1039025;28;20036;-74
2023/04/17 00:29:32;;;;;;;22.33;10.32;;;;;;;5.94;100.00;96128.16;1038762;28;20462;-73
2023/04/17 00:30:03;;;;;;;18.50;11.68;;;;;;;5.98;100.00;96125.88;1043090;28;20490;-74
2023/04/17 00:30:34;;;;;;;18.65;11.60;;;;;;;5.99;100.00;96132.69;1034373;28;20371;-74
2023/04/17 00:31:04;;;;;;;15.70;10.32;;;;;;;5.99;100.00;96132.69;1031484;28;20022;-73
2023/04/17 00:31:35;;;;;;;15.05;10.18;;;;;;;5.98;100.00;96125.88;1033157;28;21675;-73
2023/04/17 00:32:05;;;;;;;14.85;9.70;;;;;;;5.98;100.00;96129.28;1035179;28;20080;-74
2023/04/17 00:32:36;;;;;;;15.27;10.75;;;;;;;5.94;100.00;96124.75;1043231;28;20044;-73
2023/04/17 00:33:06;;;;;;;16.73;9.90;;;;;;;5.99;100.00;96130.06;1044518;28;20032;-74
2023/04/17 00:33:36;;;;;;;15.68;10.45;;;;;;;6.00;100.00;96134.25;1046527;28;20509;-73
2023/04/17 00:34:07;;;;;;;18.90;10.95;;;;;;;5.95;100.00;96124.50;1051697;28;20020;-74
2023/04/17 00:34:39;;;;;;;16.50;10.13;;;;;;;5.98;100.00;96128.50;1046361;28;20593;-73
2023/04/17 00:35:09;;;;;;;19.38;10.68;;;;;;;5.96;100.00;96130.50;1038900;28;20030;-73
2023/04/17 00:35:40;;;;;;;18.00;10.88;;;;;;;5.99;100.00;96133.47;1034620;28;20281;-73
2023/04/17 00:36:12;;;;;;;19.67;11.00;;;;;;;6.00;100.00;96129.88;1038753;28;20059;-73
2023/04/17 00:36:42;;;;;;;21.77;11.35;;;;;;;5.98;100.00;96131.09;1038345;28;20081;-73
2023/04/17 00:37:13;;;;;;;23.88;12.52;;;;;;;6.01;100.00;96133.25;1038811;28;20663;-73
2023/04/17 00:37:43;;;;;;;23.40;12.52;;;;;;;6.02;100.00;96129.63;1038358;28;20056;-73
2023/04/17 00:38:14;;;;;;;26.15;13.05;;;;;;;6.01;100.00;96134.03;1034786;28;20030;-73
2023/04/17 00:38:45;;;;;;;25.98;12.75;;;;;;;6.03;100.00;96137.19;1034679;28;20030;-73
2023/04/17 00:39:15;;;;;;;26.58;12.68;;;;;;;6.05;100.00;96131.78;1030816;28;20042;-73
2023/04/17 00:39:45;;;;;;;24.63;12.55;;;;;;;6.07;100.00;96132.34;1030565;28;20030;-73
2023/04/17 00:40:16;;;;;;;19.60;11.90;;;;;;;6.06;100.00;96128.94;1031054;28;20038;-74
2023/04/17 00:40:47;;;;;;;23.17;12.77;;;;;;;6.06;100.00;96128.16;1039210;28;20025;-73
2023/04/17 00:41:18;;;;;;;22.13;12.68;;;;;;;6.09;100.00;96122.50;1034976;28;20168;-73
2023/04/17 00:41:48;;;;;;;25.85;13.93;;;;;;;6.08;100.00;96126.13;1038614;28;20322;-73
2023/04/17 00:42:19;;;;;;;24.05;13.68;;;;;;;6.05;100.00;96129.19;1034793;28;20021;-73
2023/04/17 00:42:52;;;;;;;26.55;13.77;;;;;;;6.03;100.00;96123.38;1026822;28;20027;-73
2023/04/17 00:43:22;;;;;;;26.40;13.80;;;;;;;6.02;100.00;96112.19;1028305;28;20022;-73
2023/04/17 00:43:52;;;;;;;30.90;13.88;;;;;;;6.08;100.00;96119.09;1035073;28;20280;-73
2023/04/17 00:44:23;;;;;;;28.75;15.00;;;;;;;6.09;100.00;96125.09;1035007;28;20026;-73
2023/04/17 00:44:53;;;;;;;30.13;14.40;;;;;;;6.09;100.00;96122.50;1038093;28;20033;-73
2023/04/17 00:45:24;;;;;;;24.02;13.32;;;;;;;6.09;100.00;96125.91;1038727;28;20032;-74
2023/04/17 00:45:54;;;;;;;30.17;14.15;;;;;;;6.12;100.00;96116.84;1030865;28;20018;-74
2023/04/17 00:46:25;;;;;;;25.15;13.15;;;;;;;6.13;100.00;96121.81;1030930;28;20420;-73
2023/04/17 00:46:55;;;;;;;35.40;14.93;;;;;;;5.93;100.00;96097.09;1033627;28;20104;-73
2023/04/17 00:47:26;;;;;;;31.02;14.68;;;;;;;6.08;100.00;96115.72;1039002;28;20252;-73
2023/04/17 00:47:57;;;;;;;25.83;14.50;;;;;;;6.12;100.00;96125.44;1034803;28;20467;-73
2023/04/17 00:48:28;;;;;;;25.98;12.95;;;;;;;6.13;100.00;96124.44;1036110;28;20674;-74
2023/04/17 00:48:59;;;;;;;32.63;15.07;;;;;;;6.14;100.00;96120.03;1039064;28;20268;-72
2023/04/17 00:49:30;;;;;;;32.55;14.52;;;;;;;6.15;100.00;96121.59;1038749;28;20116;-74
2023/04/17 00:50:01;;;;;;;31.25;15.48;;;;;;;6.13;100.00;96119.22;1042694;28;20271;-73
2023/04/17 00:50:32;;;;;;;30.17;14.63;;;;;;;6.12;100.00;96117.63;1035097;28;20058;-73
2023/04/17 00:51:02;;;;;;;29.05;14.18;;;;;;;6.15;100.00;96126.81;1034700;28;20658;-73
2023/04/17 00:51:34;;;;;;;38.30;15.05;;;;;;;6.13;100.00;96119.22;1034750;28;20104;-73
2023/04/17 00:52:04;;;;;;;35.85;14.57;;;;;;;6.16;100.00;96117.97;1034401;28;20022;-73
2023/04/17 00:52:35;;;;;;;27.88;14.75;;;;;;;6.15;100.00;96121.59;1030415;28;20696;-73
2023/04/17 00:53:05;;;;;;;34.03;15.13;;;;;;;6.15;100.00;96119.00;1022718;29;20030;-73
2023/04/17 00:53:36;;;;;;;27.70;14.63;;;;;;;6.18;100.00;96126.38;1026393;28;20038;-73
2023/04/17 00:54:06;;;;;;;33.50;15.05;;;;;;;6.17;100.00;96118.75;1034653;28;20034;-73
2023/04/17 00:54:36;;;;;;;27.10;14.70;;;;;;;6.09;100.00;96118.09;1034267;28;20034;-73
2023/04/17 00:55:07;;;;;;;30.85;15.32;;;;;;;6.08;100.00;96115.72;1034396;28;20037;-74
2023/04/17 00:55:38;;;;;;;26.92;14.63;;;;;;;6.08;100.00;96110.50;1026659;28;20050;-72
2023/04/17 00:56:09;;;;;;;27.67;15.80;;;;;;;6.14;100.00;96122.63;1026646;28;20184;-72
2023/04/17 00:56:41;;;;;;;31.92;14.30;;;;;;;6.17;100.00;96123.97;1026732;28;20339;-72
2023/04/17 00:57:11;;;;;;;27.73;14.65;;;;;;;6.16;100.00;96123.19;1039132;28;20033;-73
2023/04/17 00:57:42;;;;;;;32.40;14.57;;;;;;;6.18;100.00;96126.38;1038651;28;20272;-73
2023/04/17 00:58:12;;;;;;;29.27;15.57;;;;;;;6.17;100.00;96118.75;1035174;28;20026;-73
2023/04/17 00:58:43;;;;;;;27.05;14.55;;;;;;;6.17;100.00;96123.97;1034592;28;20033;-73
2023/04/17 00:59:15;;;;;;;47.80;16.70;;;;;;;6.18;100.00;96121.16;1030865;28;20053;-73
2023/04/17 00:59:46;;;;;;;28.58;15.43;;;;;;;6.16;100.00;96125.00;1039551;28;20064;-74
2023/04/17 01:00:17;;;;;;;30.58;15.95;;;;;;;6.09;100.00;96117.28;1039580;28;20588;-72
2023/04/17 01:00:47;;;;;;;33.42;14.98;;;;;;;6.19;100.00;96122.75;1038705;28;20037;-74
2023/04/17 01:01:18;;;;;;;30.88;16.33;;;;;;;6.14;100.00;96115.59;1039016;28;20064;-74
2023/04/17 01:01:48;;;;;;;28.83;14.82;;;;;;;6.22;100.00;96121.50;1038930;28;20396;-73
2023/04/17 01:02:19;;;;;;;27.00;14.68;;;;;;;6.17;100.00;96114.38;1042495;28;20060;-73
2023/04/17 01:02:49;;;;;;;31.58;15.05;;;;;;;6.19;100.00;96125.34;1047151;28;20031;-74
2023/04/17 01:03:20;;;;;;;29.92;15.25;;;;;;;6.22;100.00;96122.28;1042818;28;20043;-73
2023/04/17 01:03:51;;;;;;;31.02;15.32;;;;;;;6.21;100.00;96117.31;1030802;28;20038;-73
2023/04/17 01:04:21;;;;;;;28.05;14.75;;;;;;;6.24;100.00;96119.47;1022707;28;20100;-74
2023/04/17 01:04:51;;;;;;;30.17;15.52;;;;;;;6.22;100.00;96124.91;1025887;28;20045;-74
2023/04/17 01:05:22;;;;;;;30.02;15.00;;;;;;;6.20;100.00;96118.31;1034936;28;20093;-73
2023/04/17 01:05:53;;;;;;;29.13;15.10;;;;;;;6.24;100.00;96130.69;1026965;28;20034;-73
2023/04/17 01:06:23;;;;;;;30.38;15.68;;;;;;;6.20;100.00;96113.91;1022628;28;20114;-74
2023/04/17 01:06:54;;;;;;;33.55;16.75;;;;;;;6.20;100.00;96126.94;1022748;29;20023;-73
2023/04/17 01:07:25;;;;;;;35.75;15.05;;;;;;;6.21;100.00;96125.13;1022715;28;20031;-73
2023/04/17 01:07:56;;;;;;;30.75;15.13;;;;;;;6.22;100.00;96121.50;1035030;28;20564;-74
2023/04/17 01:08:26;;;;;;;31.75;15.10;;;;;;;6.22;100.00;96127.50;1034953;28;20122;-73
2023/04/17 01:08:57;;;;;;;26.88;14.80;;;;;;;6.22;100.00;96126.72;1030405;28;20277;-73
2023/04/17 01:09:27;;;;;;;27.98;14.70;;;;;;;6.22;100.00;96122.28;1022818;29;20024;-73
2023/04/17 01:09:58;;;;;;;28.75;15.60;;;;;;;6.21;100.00;96125.13;1022870;28;20027;-73
2023/04/17 01:10:28;;;;;;;29.67;15.57;;;;;;;6.20;100.00;96119.09;1030442;28;20060;-73
2023/04/17 01:10:59;;;;;;;33.55;14.55;;;;;;;6.22;100.00;96121.50;1034604;28;20033;-70
2023/04/17 01:11:29;;;;;;;26.92;14.38;;;;;;;6.21;100.00;96123.31;1038570;28;20082;-73
2023/04/17 01:12:16;;;;;;;25.83;14.52;;;;;;;6.22;100.00;96121.50;1034847;28;20026;-73
2023/04/17 01:12:48;;;;;;;33.22;15.45;;;;;;;6.23;100.00;96117.88;1034654;28;20029;-74
2023/04/17 01:13:18;;;;;;;30.05;15.32;;;;;;;6.25;100.00;96116.63;1034708;28;20260;-72
2023/04/17 01:13:49;;;;;;;29.00;15.30;;;;;;;6.18;100.00;96105.53;1033213;28;20277;-74
2023/04/17 01:14:19;;;;;;;28.23;15.15;;;;;;;6.20;100.00;96113.91;1039189;28;20033;-74
2023/04/17 01:14:53;;;;;;;28.85;15.15;;;;;;;6.21;100.00;96122.53;1037939;28;20029;-73
2023/04/17 01:15:24;;;;;;;34.75;15.98;;;;;;;6.19;100.00;96114.13;1030122;28;20035;-73
2023/04/17 01:15:54;;;;;;;25.33;13.95;;;;;;;6.16;100.00;96112.75;1025929;28;20333;-73
2023/04/17 01:16:25;;;;;;;26.10;13.95;;;;;;;6.23;100.00;96121.25;1038729;28;20041;-73
2023/04/17 01:16:55;;;;;;;29.17;14.32;;;;;;;6.25;100.00;96118.44;1038719;28;20034;-73
2023/04/17 01:17:26;;;;;;;32.97;15.25;;;;;;;6.26;100.00;96118.22;1040828;28;20297;-73
2023/04/17 01:17:57;;;;;;;27.55;14.77;;;;;;;6.23;100.00;96110.84;1042952;28;20024;-73
2023/04/17 01:18:27;;;;;;;25.80;14.02;;;;;;;6.27;100.00;96119.81;1038690;28;20689;-74
2023/04/17 01:18:58;;;;;;;30.52;14.15;;;;;;;6.27;100.00;96119.81;1034146;28;20487;-73
2023/04/17 01:19:28;;;;;;;25.88;14.57;;;;;;;6.23;100.00;96110.84;1034378;28;20495;-73
2023/04/17 01:19:59;;;;;;;27.33;13.70;;;;;;;6.25;100.00;96118.44;1030698;28;20034;-73
2023/04/17 01:20:30;;;;;;;28.63;14.40;;;;;;;6.26;100.00;96118.22;1026735;28;20043;-72
2023/04/17 01:21:02;;;;;;;25.55;14.68;;;;;;;6.27;100.00;96114.59;1030113;28;20022;-74
2023/04/17 01:21:32;;;;;;;24.00;12.88;;;;;;;6.24;100.00;96114.28;1035336;28;20041;-73
2023/04/17 01:22:02;;;;;;;24.17;12.90;;;;;;;6.28;100.00;96121.41;1042836;28;20268;-73
2023/04/17 01:22:33;;;;;;;27.58;13.65;;;;;;;6.21;100.00;96107.69;1042719;28;20032;-73
2023/04/17 01:23:04;;;;;;;27.58;14.45;;;;;;;6.32;100.00;96117.31;1036188;28;20556;-74
2023/04/17 01:23:50;;;;;;;28.35;13.27;;;;;;;6.22;100.00;96106.66;1034542;28;20455;-72
2023/04/17 01:24:21;;;;;;;29.67;14.52;;;;;;;6.35;100.00;96121.28;1045286;28;20427;-73
2023/04/17 01:24:51;;;;;;;26.73;13.95;;;;;;;6.35;100.00;96116.06;1042003;28;20260;-73
2023/04/17 01:25:22;;;;;;;24.40;12.95;;;;;;;6.35;100.00;96119.47;1038657;28;20522;-74
2023/04/17 01:25:52;;;;;;;26.08;13.10;;;;;;;6.31;100.00;96114.94;1030683;28;20133;-73
2023/04/17 01:26:23;;;;;;;24.88;13.32;;;;;;;6.34;100.00;96127.53;1032218;28;20026;-72
2023/04/17 01:26:53;;;;;;;25.20;14.43;;;;;;;6.35;100.00;96127.28;1038923;28;20490;-74
2023/04/17 01:27:24;;;;;;;24.75;14.30;;;;;;;6.37;100.00;96130.47;1034638;28;20060;-72
2023/04/17 01:27:55;;;;;;;27.40;13.98;;;;;;;6.35;100.00;96124.69;1026313;28;20051;-73
2023/04/17 01:28:26;;;;;;;28.17;13.38;;;;;;;6.31;100.00;96115.75;1030912;28;20026;-73
2023/04/17 01:28:57;;;;;;;25.48;12.80;;;;;;;6.30;100.00;96114.13;1026727;28;20273;-73
2023/04/17 01:29:27;;;;;;;25.92;14.18;;;;;;;6.36;100.00;96125.47;1026553;28;20031;-73
2023/04/17 01:29:57;;;;;;;26.17;13.10;;;;;;;6.36;100.00;96126.25;1037986;28;20264;-73
2023/04/17 01:30:28;;;;;;;23.77;12.90;;;;;;;6.35;100.00;96122.06;1039014;28;20017;-74
2023/04/17 01:30:58;;;;;;;25.33;13.55;;;;;;;6.37;100.00;96130.47;1030646;28;20081;-74
2023/04/17 01:31:30;;;;;;;26.98;14.65;;;;;;;6.40;100.00;96124.00;1028195;28;20030;-74
2023/04/17 01:32:00;;;;;;;23.02;13.27;;;;;;;6.38;100.00;96126.06;1026601;28;20107;-75
2023/04/17 01:32:31;;;;;;;27.50;14.00;;;;;;;6.40;100.00;96120.59;1027118;28;20667;-72
2023/04/17 01:33:01;;;;;;;26.67;13.05;;;;;;;6.38;100.00;96126.84;1033421;28;20411;-72
2023/04/17 01:33:32;;;;;;;25.05;12.30;;;;;;;6.38;100.00;96131.25;1037651;28;20026;-73
2023/04/17 01:34:02;;;;;;;25.35;13.90;;;;;;;6.35;100.00;96124.69;1034679;28;20439;-73
2023/04/17 01:34:33;;;;;;;27.30;14.00;;;;;;;6.32;100.00;96127.75;1038032;28;20036;-73
2023/04/17 01:35:04;;;;;;;27.80;13.82;;;;;;;6.35;100.00;96132.50;1037616;28;20063;-72
2023/04/17 01:35:34;;;;;;;21.70;12.38;;;;;;;6.37;100.00;96122.66;1034703;28;20109;-73
2023/04/17 01:36:05;;;;;;;23.48;13.20;;;;;;;6.37;100.00;96130.47;1034513;28;20029;-73
2023/04/17 01:36:36;;;;;;;27.48;13.32;;;;;;;6.25;100.00;96111.41;1032444;28;20583;-72
2023/04/17 01:37:06;;;;;;;27.77;13.95;;;;;;;6.37;100.00;96125.25;1038628;28;20029;-74
2023/04/17 01:37:37;;;;;;;29.23;14.23;;;;;;;6.36;100.00;96128.88;1034739;28;20033;-72
2023/04/17 01:38:07;;;;;;;23.40;12.90;;;;;;;6.39;100.00;96127.63;1039190;28;20022;-72
2023/04/17 01:38:38;;;;;;;22.55;12.75;;;;;;;6.41;100.00;96130.03;1042651;28;20021;-73
2023/04/17 01:39:08;;;;;;;22.90;12.55;;;;;;;6.42;100.00;96131.59;1038766;28;20031;-73
2023/04/17 01:39:39;;;;;;;24.83;13.75;;;;;;;6.42;100.00;96131.59;1038958;28;20513;-73
2023/04/17 01:40:09;;;;;;;25.05;13.32;;;;;;;6.36;100.00;96122.88;1040892;28;20032;-73
2023/04/17 01:40:40;;;;;;;24.73;13.68;;;;;;;6.37;100.00;96127.88;1038791;28;20021;-72
2023/04/17 01:41:10;;;;;;;27.65;13.90;;;;;;;6.33;100.00;96129.31;1030598;28;20026;-73
2023/04/17 01:41:41;;;;;;;26.20;12.88;;;;;;;6.36;100.00;96128.88;1026220;28;20026;-72
2023/04/17 01:42:11;;;;;;;28.38;14.57;;;;;;;6.37;100.00;96132.25;1034706;28;20030;-73
2023/04/17 01:42:42;;;;;;;30.33;13.82;;;;;;;6.36;100.00;96128.88;1034557;28;20309;-73
2023/04/17 01:43:12;;;;;;;28.55;14.45;;;;;;;6.36;100.00;96128.88;1034668;28;20037;-73
2023/04/17 01:43:44;;;;;;;25.63;13.13;;;;;;;6.33;100.00;96123.31;1042848;28;20513;-73
2023/04/17 01:44:15;;;;;;;22.92;13.98;;;;;;;6.36;100.00;96131.47;1035163;28;20506;-74
2023/04/17 01:44:45;;;;;;;26.42;14.35;;;;;;;6.40;100.00;96133.63;1038046;28;20691;-73
2023/04/17 01:45:16;;;;;;;23.48;13.57;;;;;;;6.40;100.00;96133.63;1042509;28;20028;-74
2023/04/17 01:45:46;;;;;;;25.92;14.13;;;;;;;6.40;100.00;96123.22;1034597;28;20555;-73
2023/04/17 01:46:16;;;;;;;38.08;15.35;;;;;;;6.36;100.00;96128.88;1038724;28;20045;-73
2023/04/17 01:46:47;;;;;;;36.13;14.32;;;;;;;6.38;100.00;96126.06;1036031;28;20042;-74
2023/04/17 01:47:17;;;;;;;24.50;13.50;;;;;;;6.27;100.00;96114.59;1034676;28;20045;-73
2023/04/17 01:47:48;;;;;;;38.55;15.80;;;;;;;6.41;100.00;96135.25;1038785;28;20025;-73
2023/04/17 01:48:18;;;;;;;35.85;14.98;;;;;;;6.38;100.00;96120.84;1038580;28;20029;-72
2023/04/17 01:48:49;;;;;;;25.10;12.52;;;;;;;6.38;100.00;96121.63;1038811;28;20095;-73
2023/04/17 01:49:19;;;;;;;31.20;12.90;;;;;;;6.37;100.00;96121.84;1038674;28;20164;-73
2023/04/17 01:49:50;;;;;;;24.13;11.98;;;;;;;6.42;100.00;96129.78;1034442;28;20029;-73
2023/04/17 01:50:20;;;;;;;29.00;13.95;;;;;;;6.37;100.00;96127.88;1030660;28;20058;-74
2023/04/17 01:50:51;;;;;;;22.60;12.48;;;;;;;6.37;100.00;96125.25;1034364;28;20427;-75
2023/04/17 01:51:21;;;;;;;31.27;13.95;;;;;;;6.37;100.00;96125.25;1034736;28;20083;-73
2023/04/17 01:51:52;;;;;;;27.70;13.50;;;;;;;6.40;100.00;96123.22;1038801;28;20499;-73
2023/04/17 01:52:22;;;;;;;25.45;13.38;;;;;;;6.34;100.00;96125.72;1046896;28;20482;-73
2023/04/17 01:52:52;;;;;;;27.42;13.65;;;;;;;6.35;100.00;96127.28;1047010;28;20623;-73
2023/04/17 01:53:23;;;;;;;26.00;13.10;;;;;;;6.36;100.00;96131.47;1042650;28;20029;-73
2023/04/17 01:53:53;;;;;;;27.42;12.70;;;;;;;6.35;100.00;96129.91;1046873;28;20506;-73
2023/04/17 01:54:24;;;;;;;24.83;13.50;;;;;;;6.36;100.00;96118.44;1038886;28;20021;-75
2023/04/17 01:54:54;;;;;;;31.35;14.95;;;;;;;6.41;100.00;96135.25;1033861;28;20056;-72
2023/04/17 01:55:25;;;;;;;32.83;14.63;;;;;;;6.42;100.00;96123.78;1042589;28;20033;-72
2023/04/17 01:55:55;;;;;;;29.25;14.50;;;;;;;6.38;100.00;96128.66;1034805;28;20876;-73
2023/04/17 01:56:26;;;;;;;28.95;14.18;;;;;;;6.38;100.00;96128.66;1030468;28;20037;-72
2023/04/17 01:56:56;;;;;;;34.50;15.63;;;;;;;6.40;100.00;96133.63;1030422;28;20133;-74
2023/04/17 01:57:27;;;;;;;30.83;13.27;;;;;;;6.38;100.00;96129.44;1034358;28;20037;-72
2023/04/17 01:57:57;;;;;;;24.80;13.25;;;;;;;6.32;100.00;96125.13;1034707;28;20030;-73
2023/04/17 01:58:28;;;;;;;26.55;14.20;;;;;;;6.37;100.00;96130.47;1034618;28;20022;-75
2023/04/17 01:58:58;;;;;;;31.67;14.35;;;;;;;6.35;100.00;96132.50;1030377;28;20027;-73
2023/04/17 01:59:29;;;;;;;31.15;14.75;;;;;;;6.31;100.00;96128.78;1026419;28;20427;-72
2023/04/17 01:59:59;;;;;;;28.60;15.02;;;;;;;6.33;100.00;96129.31;1027026;28;20401;-72
2023/04/17 02:00:30;;;;;;;31.55;15.52;;;;;;;6.34;100.00;96136.13;1033205;28;20482;-73
2023/04/17 02:01:00;;;;;;;31.60;14.73;;;;;;;6.34;100.00;96130.94;1034666;28;20029;-75
2023/04/17 02:01:31;;;;;;;32.67;15.18;;;;;;;6.32;100.00;96122.53;1038634;28;20079;-72
2023/04/17 02:02:01;;;;;;;31.00;15.45;;;;;;;6.33;100.00;96129.31;1030705;28;20077;-73
2023/04/17 02:02:32;;;;;;;32.30;15.80;;;;;;;6.35;100.00;96127.28;1034948;28;20846;-74
2023/04/17 02:03:02;;;;;;;29.95;14.63;;;;;;;6.34;100.00;96130.13;1038653;28;20419;-72
2023/04/17 02:03:33;;;;;;;30.92;14.82;;;;;;;6.33;100.00;96125.94;1034690;28;20476;-73
2023/04/17 02:04:04;;;;;;;50.15;16.50;;;;;;;6.33;100.00;96128.53;1038902;28;20037;-73
2023/04/17 02:04:34;;;;;;;47.75;17.65;;;;;;;6.32;100.00;96127.75;1038116;28;20037;-73
2023/04/17 02:05:05;;;;;;;30.67;15.18;;;;;;;6.28;100.00;96126.59;1038329;28;20029;-73
2023/04/17 02:05:35;;;;;;;41.70;17.00;;;;;;;6.29;100.00;96122.19;1041260;28;20029;-72
2023/04/17 02:06:06;;;;;;;46.50;16.90;;;;;;;6.34;100.00;96124.94;1038676;28;20045;-73
2023/04/17 02:06:36;;;;;;;44.00;16.88;;;;;;;6.27;100.00;96125.03;1038724;28;20121;-74
2023/04/17 02:07:07;;;;;;;32.47;16.00;;;;;;;6.34;100.00;96128.31;1037416;28;20029;-73
2023/04/17 02:07:37;;;;;;;27.35;15.70;;;;;;;6.34;100.00;96130.94;1038574;28;20033;-73
2023/04/17 02:08:08;;;;;;;37.35;15.88;;;;;;;6.36;100.00;96130.69;1038764;28;20201;-72
2023/04/17 02:08:38;;;;;;;27.50;15.07;;;;;;;6.32;100.00;96125.13;1038487;28;20033;-73
2023/04/17 02:09:09;;;;;;;32.55;16.30;;;;;;;6.36;100.00;96134.09;1034238;28;20452;-73
2023/04/17 02:09:39;;;;;;;33.65;15.45;;;;;;;6.32;100.00;96114.72;1034326;28;20041;-73
2023/04/17 02:10:10;;;;;;;60.47;18.00;;;;;;;6.41;100.00;96130.03;1039277;28;20033;-73
2023/04/17 02:10:41;;;;;;;42.78;16.30;;;;;;;6.44;100.00;96126.94;1036573;28;20105;-74
2023/04/17 02:11:14;;;;;;;37.90;16.55;;;;;;;6.35;100.00;96121.28;1030845;28;20069;-73
2023/04/17 02:11:44;;;;;;;45.75;18.27;;;;;;;6.40;100.00;96124.00;1030863;28;20273;-73
2023/04/17 02:12:15;;;;;;;63.22;17.25;;;;;;;6.36;100.00;96117.66;1040394;28;20280;-74
2023/04/17 02:12:45;;;;;;;31.73;15.73;;;;;;;6.42;100.00;96126.41;1034971;28;20434;-72
2023/04/17 02:13:15;;;;;;;42.28;16.13;;;;;;;6.41;100.00;96122.22;1042627;28;20036;-73
2023/04/17 02:13:46;;;;;;;35.35;16.67;;;;;;;6.40;100.00;96118.78;1038628;28;20040;-72
2023/04/17 02:14:16;;;;;;;30.23;15.73;;;;;;;6.38;100.00;96121.63;1030628;28;20038;-73
2023/04/17 02:14:47;;;;;;;51.40;18.35;;;;;;;6.36;100.00;96120.25;1030140;28;20478;-73
2023/04/17 02:15:17;;;;;;;51.92;18.00;;;;;;;6.39;100.00;96119.81;1030429;28;20034;-73
2023/04/17 02:15:48;;;;;;;62.35;18.58;;;;;;;6.40;100.00;96124.00;1034068;28;20083;-73
2023/04/17 02:16:20;;;;;;;51.75;18.20;;;;;;;6.38;100.00;96120.84;1030589;28;20026;-73
2023/04/17 02:16:52;;;;;;;38.55;17.30;;;;;;;6.37;100.00;96114.84;1034289;28;20044;-72
2023/04/17 02:17:23;;;;;;;38.97;16.52;;;;;;;6.36;100.00;96123.66;1038413;28;20937;-74
2023/04/17 02:17:53;;;;;;;38.13;16.58;;;;;;;6.38;100.00;96118.22;1038814;28;20275;-72
2023/04/17 02:18:24;;;;;;;37.13;17.10;;;;;;;6.34;100.00;96115.28;1042641;28;20029;-73
2023/04/17 02:18:54;;;;;;;44.05;17.90;;;;;;;6.37;100.00;96121.84;1038606;28;20033;-73
2023/04/17 02:19:25;;;;;;;50.03;18.08;;;;;;;6.42;100.00;96123.78;1038380;28;20029;-73
2023/04/17 02:19:55;;;;;;;46.33;17.75;;;;;;;6.35;100.00;96122.06;1034218;28;20045;-73
2023/04/17 02:20:25;;;;;;;48.05;19.33;;;;;;;6.34;100.00;96120.50;1034815;28;20033;-72
2023/04/17 02:20:56;;;;;;;57.05;19.30;;;;;;;6.38;100.00;96116.41;1031278;28;20057;-73
2023/04/17 02:21:27;;;;;;;53.70;19.60;;;;;;;6.35;100.00;96126.50;1037517;28;20033;-73
2023/04/17 02:21:57;;;;;;;57.05;19.00;;;;;;;6.36;100.00;96123.66;1035312;28;20033;-73